createdAt,value
2023-03-13T00:01:21.335Z,6.62
2023-03-13T00:04:22.933Z,7.12
2023-03-13T00:07:24.409Z,7.08
2023-03-13T00:10:27.224Z,6.89
2023-03-13T00:13:28.719Z,6.91
2023-03-13T00:16:30.433Z,6.86
2023-03-13T00:19:32.007Z,6.61
2023-03-13T00:22:33.505Z,6.60
2023-03-13T00:25:35.009Z,6.74
2023-03-13T00:28:37.190Z,6.68
2023-03-13T00:31:38.774Z,6.73
2023-03-13T00:34:40.281Z,6.65
2023-03-13T00:37:42.564Z,6.57
2023-03-13T00:40:44.092Z,6.59
2023-03-13T00:43:46.100Z,6.75
2023-03-13T00:46:47.615Z,7.09
2023-03-13T00:49:49.130Z,6.76
2023-03-13T00:52:50.623Z,6.63
2023-03-13T00:56:05.895Z,6.47
2023-03-13T00:59:07.450Z,6.57
2023-03-13T01:02:09.034Z,6.36
2023-03-13T01:05:10.645Z,6.38
2023-03-13T01:08:12.143Z,6.38
2023-03-13T01:11:18.810Z,6.48
2023-03-13T01:14:20.325Z,6.46
2023-03-13T01:17:21.810Z,6.47
2023-03-13T01:20:23.269Z,6.73
2023-03-13T01:23:24.813Z,6.63
2023-03-13T01:26:26.510Z,6.84
2023-03-13T01:29:28.026Z,7.01
2023-03-13T01:32:29.576Z,7.08
2023-03-13T01:35:31.391Z,7.12
2023-03-13T01:38:32.930Z,7.40
2023-03-13T01:41:34.442Z,7.48
2023-03-13T01:44:52.817Z,7.90
2023-03-13T01:47:54.327Z,7.94
2023-03-13T01:50:55.849Z,7.89
2023-03-13T01:54:17.089Z,7.86
2023-03-13T01:57:29.618Z,7.75
2023-03-13T02:00:32.193Z,7.71
2023-03-13T02:03:33.832Z,7.76
2023-03-13T02:06:36.317Z,7.67
2023-03-13T02:09:37.953Z,7.73
2023-03-13T02:12:39.715Z,7.39
2023-03-13T02:15:41.321Z,7.31
2023-03-13T02:18:42.837Z,7.21
2023-03-13T02:21:59.558Z,7.21
2023-03-13T02:25:25.614Z,7.34
2023-03-13T02:28:33.911Z,7.36
2023-03-13T02:31:35.587Z,7.56
2023-03-13T02:34:38.578Z,7.77
2023-03-13T02:37:42.026Z,7.77
2023-03-13T02:40:45.197Z,7.75
2023-03-13T02:43:46.683Z,7.81
2023-03-13T02:46:52.445Z,7.82
2023-03-13T02:49:54.081Z,7.95
2023-03-13T02:52:57.243Z,8.24
2023-03-13T02:55:58.720Z,8.45
2023-03-13T02:59:00.506Z,8.66
2023-03-13T03:02:02.205Z,8.69
2023-03-13T03:05:04.207Z,8.83
2023-03-13T03:08:05.738Z,8.86
2023-03-13T03:11:07.326Z,8.95
2023-03-13T03:14:09.302Z,9.20
2023-03-13T03:17:10.816Z,9.09
2023-03-13T03:20:12.385Z,9.35
2023-03-13T03:23:13.942Z,9.33
2023-03-13T03:26:15.437Z,9.43
2023-03-13T03:29:16.905Z,9.48
2023-03-13T03:32:18.421Z,9.35
2023-03-13T03:35:19.927Z,9.35
2023-03-13T03:38:21.433Z,9.27
2023-03-13T03:41:22.898Z,9.26
2023-03-13T03:44:24.697Z,9.29
2023-03-13T03:47:26.261Z,9.48
2023-03-13T03:50:27.851Z,9.47
2023-03-13T03:53:29.366Z,9.51
2023-03-13T03:56:30.842Z,9.36
2023-03-13T03:59:32.356Z,9.31
2023-03-13T04:02:33.875Z,9.29
2023-03-13T04:05:35.358Z,9.18
2023-03-13T04:08:36.884Z,9.27
2023-03-13T04:11:38.458Z,9.42
2023-03-13T04:14:39.926Z,9.37
2023-03-13T04:17:41.394Z,9.45
2023-03-13T04:20:42.892Z,9.57
2023-03-13T04:23:44.394Z,9.67
2023-03-13T04:26:45.880Z,9.56
2023-03-13T04:29:47.349Z,9.64
2023-03-13T04:32:50.960Z,9.71
2023-03-13T04:35:52.536Z,9.75
2023-03-13T04:38:54.092Z,9.92
2023-03-13T04:41:55.614Z,10.04
2023-03-13T04:44:57.110Z,9.94
2023-03-13T04:47:58.630Z,10.10
2023-03-13T04:51:00.121Z,10.49
2023-03-13T04:54:01.636Z,10.32
2023-03-13T04:57:03.159Z,10.28
2023-03-13T05:00:08.055Z,10.03
2023-03-13T05:03:09.593Z,10.01
2023-03-13T05:06:11.163Z,10.12
2023-03-13T05:09:12.795Z,10.08
2023-03-13T05:12:14.300Z,10.00
2023-03-13T05:15:15.765Z,9.94
2023-03-13T05:18:17.245Z,9.97
2023-03-13T05:21:18.751Z,10.01
2023-03-13T05:24:20.235Z,9.95
2023-03-13T05:27:21.977Z,9.83
2023-03-13T05:30:23.463Z,9.76
2023-03-13T05:33:24.951Z,9.82
2023-03-13T05:36:26.444Z,9.86
2023-03-13T05:39:27.939Z,9.64
2023-03-13T05:42:29.464Z,9.76
2023-03-13T05:45:30.985Z,9.99
2023-03-13T05:48:32.473Z,9.87
2023-03-13T05:51:34.104Z,9.86
2023-03-13T05:54:35.580Z,9.84
2023-03-13T05:57:37.128Z,9.90
2023-03-13T06:00:38.603Z,9.86
2023-03-13T06:03:40.317Z,9.99
2023-03-13T06:06:42.014Z,9.82
2023-03-13T06:09:43.539Z,9.90
2023-03-13T06:12:45.082Z,10.04
2023-03-13T06:15:53.887Z,10.01
2023-03-13T06:18:55.451Z,9.96
2023-03-13T06:21:56.969Z,9.99
2023-03-13T06:24:58.484Z,10.02
2023-03-13T06:27:59.961Z,10.12
2023-03-13T06:31:03.056Z,10.26
2023-03-13T06:34:04.594Z,10.35
2023-03-13T06:37:06.143Z,10.14
2023-03-13T06:40:08.492Z,10.18
2023-03-13T06:43:09.925Z,10.17
2023-03-13T06:46:22.306Z,10.31
2023-03-13T06:49:23.788Z,10.37
2023-03-13T06:52:37.487Z,10.19
2023-03-13T06:55:43.283Z,10.17
2023-03-13T06:58:48.422Z,10.22
2023-03-13T07:01:49.954Z,10.14
2023-03-13T07:04:51.430Z,10.25
2023-03-13T07:07:52.963Z,10.25
2023-03-13T07:10:54.956Z,10.38
2023-03-13T07:14:10.007Z,10.42
2023-03-13T07:17:17.096Z,10.35
2023-03-13T07:20:18.890Z,10.52
2023-03-13T07:23:20.827Z,10.53
2023-03-13T07:26:22.383Z,10.50
2023-03-13T07:29:23.910Z,10.51
2023-03-13T07:32:25.450Z,10.58
2023-03-13T07:35:26.961Z,10.79
2023-03-13T07:38:28.498Z,10.69
2023-03-13T07:41:29.989Z,10.75
2023-03-13T07:44:31.700Z,10.84
2023-03-13T07:47:36.280Z,10.89
2023-03-13T07:50:37.800Z,10.98
2023-03-13T07:53:39.374Z,11.10
2023-03-13T07:56:40.871Z,11.43
2023-03-13T07:59:42.375Z,11.62
2023-03-13T08:02:43.932Z,11.71
2023-03-13T08:05:45.640Z,11.83
2023-03-13T08:08:47.486Z,11.95
2023-03-13T08:11:49.070Z,11.98
2023-03-13T08:14:50.614Z,11.97
2023-03-13T08:17:52.907Z,11.94
2023-03-13T08:20:54.416Z,12.21
2023-03-13T08:23:57.910Z,12.07
2023-03-13T08:26:59.498Z,12.21
2023-03-13T08:30:00.995Z,12.23
2023-03-13T08:33:02.677Z,12.32
2023-03-13T08:36:17.516Z,12.24
2023-03-13T08:39:19.819Z,12.16
2023-03-13T08:42:21.319Z,12.26
2023-03-13T08:45:22.786Z,12.26
2023-03-13T08:48:24.387Z,12.34
2023-03-13T08:51:26.797Z,12.46
2023-03-13T08:54:28.332Z,12.21
2023-03-13T08:57:29.811Z,11.96
2023-03-13T09:00:31.274Z,12.15
2023-03-13T09:03:33.084Z,12.15
2023-03-13T09:06:35.759Z,12.13
2023-03-13T09:09:37.274Z,12.24
2023-03-13T09:12:38.817Z,12.39
2023-03-13T09:15:40.310Z,13.20
2023-03-13T09:18:42.006Z,14.63
2023-03-13T09:21:43.516Z,16.23
2023-03-13T09:24:45.002Z,17.26
2023-03-13T09:27:46.515Z,18.35
2023-03-13T09:30:50.015Z,18.60
2023-03-13T09:33:51.717Z,18.20
2023-03-13T09:36:53.104Z,18.47
2023-03-13T09:39:54.875Z,18.04
2023-03-13T09:42:59.834Z,16.96
2023-03-13T09:46:03.039Z,17.80
2023-03-13T09:49:09.720Z,17.33
2023-03-13T09:52:29.096Z,19.18
2023-03-13T09:55:31.592Z,18.58
2023-03-13T09:58:33.089Z,18.21
2023-03-13T10:01:34.605Z,17.46
2023-03-13T10:04:41.706Z,17.14
2023-03-13T10:07:43.603Z,16.92
2023-03-13T10:10:56.066Z,17.25
2023-03-13T10:14:17.039Z,17.24
2023-03-13T10:17:36.740Z,16.82
2023-03-13T10:20:42.865Z,16.48
2023-03-13T10:23:49.394Z,16.56
2023-03-13T10:26:50.917Z,16.87
2023-03-13T10:29:52.660Z,17.61
2023-03-13T10:32:54.891Z,17.26
2023-03-13T10:36:01.238Z,17.75
2023-03-13T10:39:02.737Z,19.06
2023-03-13T10:42:16.333Z,18.43
2023-03-13T10:45:19.652Z,19.23
2023-03-13T10:48:26.134Z,21.13
2023-03-13T10:51:35.707Z,21.09
2023-03-13T10:54:39.514Z,21.04
2023-03-13T10:57:44.344Z,19.22
2023-03-13T11:00:45.950Z,18.71
2023-03-13T11:03:48.186Z,19.13
2023-03-13T11:06:53.075Z,20.28
2023-03-13T11:10:02.015Z,20.24
2023-03-13T11:13:03.950Z,19.96
2023-03-13T11:16:10.988Z,19.53
2023-03-13T11:19:42.607Z,19.33
2023-03-13T11:23:08.481Z,19.37
2023-03-13T11:26:18.481Z,20.10
2023-03-13T11:29:29.916Z,20.19
2023-03-13T11:33:05.087Z,20.13
2023-03-13T11:36:28.804Z,20.21
2023-03-13T11:39:47.029Z,20.55
2023-03-13T11:43:25.822Z,20.23
2023-03-13T11:46:41.016Z,20.19
2023-03-13T11:49:57.829Z,21.00
2023-03-13T11:53:02.369Z,20.72
2023-03-13T11:56:10.492Z,19.91
2023-03-13T11:59:37.721Z,19.10
2023-03-13T12:02:59.463Z,18.95
2023-03-13T12:06:02.299Z,19.40
2023-03-13T12:09:12.709Z,19.44
2023-03-13T12:12:42.079Z,19.64
2023-03-13T12:15:44.751Z,19.43
2023-03-13T12:18:46.351Z,19.85
2023-03-13T12:21:49.740Z,19.81
2023-03-13T12:25:06.621Z,20.10
2023-03-13T12:28:25.732Z,20.75
2023-03-13T12:31:41.474Z,20.42
2023-03-13T12:35:08.908Z,20.05
2023-03-13T12:38:17.619Z,20.28
2023-03-13T12:41:36.189Z,20.46
2023-03-13T12:44:37.713Z,20.18
2023-03-13T12:47:56.934Z,19.72
2023-03-13T12:51:11.986Z,20.46
2023-03-13T12:54:28.593Z,20.91
2023-03-13T12:57:58.762Z,20.58
2023-03-13T13:01:02.771Z,19.43
2023-03-13T13:04:11.660Z,19.54
2023-03-13T13:07:28.869Z,19.94
2023-03-13T13:10:30.359Z,19.47
2023-03-13T13:13:31.953Z,19.57
2023-03-13T13:16:33.341Z,19.98
2023-03-13T13:19:40.674Z,20.87
2023-03-13T13:22:42.143Z,21.71
2023-03-13T13:25:43.680Z,21.37
2023-03-13T13:28:46.599Z,20.70
2023-03-13T13:31:48.214Z,20.74
2023-03-13T13:34:52.696Z,20.78
2023-03-13T13:38:14.971Z,21.09
2023-03-13T13:41:16.319Z,20.29
2023-03-13T13:44:22.877Z,19.90
2023-03-13T13:47:25.418Z,20.72
2023-03-13T13:50:27.918Z,21.07
2023-03-13T13:53:30.647Z,21.93
2023-03-13T13:56:45.701Z,23.89
2023-03-13T14:00:08.600Z,23.68
2023-03-13T14:03:22.358Z,22.92
2023-03-13T14:06:30.667Z,23.58
2023-03-13T14:09:52.428Z,24.47
2023-03-13T14:12:55.130Z,24.61
2023-03-13T14:15:56.659Z,25.06
2023-03-13T14:18:58.193Z,25.45
2023-03-13T14:22:04.867Z,23.95
2023-03-13T14:25:06.551Z,22.01
2023-03-13T14:28:25.131Z,23.34
2023-03-13T14:31:36.966Z,24.35
2023-03-13T14:34:38.474Z,23.50
2023-03-13T14:37:44.658Z,23.92
2023-03-13T14:40:46.207Z,22.37
2023-03-13T14:43:47.697Z,21.52
2023-03-13T14:46:49.192Z,21.20
2023-03-13T14:49:56.232Z,20.87
2023-03-13T14:53:05.183Z,21.04
2023-03-13T14:56:15.074Z,21.92
2023-03-13T14:59:16.647Z,21.74
2023-03-13T15:02:27.089Z,21.49
2023-03-13T15:05:31.911Z,21.90
2023-03-13T15:08:34.437Z,21.13
2023-03-13T15:11:38.586Z,21.01
2023-03-13T15:14:44.295Z,20.88
2023-03-13T15:17:45.819Z,20.91
2023-03-13T15:20:50.989Z,21.04
2023-03-13T15:24:12.825Z,20.93
2023-03-13T15:27:18.447Z,20.60
2023-03-13T15:30:23.055Z,20.92
2023-03-13T15:33:26.572Z,20.95
2023-03-13T15:36:28.392Z,20.40
2023-03-13T15:39:29.871Z,20.71
2023-03-13T15:42:31.233Z,20.65
2023-03-13T15:45:32.920Z,20.49
2023-03-13T15:48:34.450Z,20.46
2023-03-13T15:51:35.788Z,20.60
2023-03-13T15:54:37.271Z,20.27
2023-03-13T15:57:42.019Z,20.20
2023-03-13T16:00:43.788Z,19.97
2023-03-13T16:03:45.301Z,19.80
2023-03-13T16:06:46.617Z,19.64
2023-03-13T16:09:48.282Z,19.46
2023-03-13T16:12:49.800Z,19.48
2023-03-13T16:15:51.428Z,19.24
2023-03-13T16:18:53.006Z,19.03
2023-03-13T16:21:54.345Z,18.92
2023-03-13T16:24:55.835Z,18.68
2023-03-13T16:27:57.605Z,18.42
2023-03-13T16:30:59.151Z,18.22
2023-03-13T16:34:01.078Z,18.15
2023-03-13T16:37:02.615Z,18.07
2023-03-13T16:40:19.230Z,17.64
2023-03-13T16:43:20.800Z,17.22
2023-03-13T16:46:23.943Z,17.21
2023-03-13T16:49:25.494Z,17.08
2023-03-13T16:52:27.006Z,16.65
2023-03-13T16:55:28.833Z,16.33
2023-03-13T16:58:30.475Z,16.18
2023-03-13T17:01:32.134Z,16.03
2023-03-13T17:04:33.659Z,16.01
2023-03-13T17:07:35.169Z,15.83
2023-03-13T17:10:36.690Z,15.68
2023-03-13T17:13:38.609Z,15.56
2023-03-13T17:16:41.352Z,15.25
2023-03-13T17:19:42.849Z,15.44
2023-03-13T17:22:45.484Z,15.33
2023-03-13T17:25:46.963Z,15.05
2023-03-13T17:28:49.770Z,14.99
2023-03-13T17:31:51.317Z,15.11
2023-03-13T17:34:52.835Z,15.22
2023-03-13T17:37:54.390Z,15.06
2023-03-13T17:40:55.895Z,15.10
2023-03-13T17:43:57.703Z,14.97
2023-03-13T17:46:59.222Z,14.34
2023-03-13T17:50:00.797Z,14.22
2023-03-13T17:53:02.450Z,14.07
2023-03-13T17:56:11.786Z,14.28
2023-03-13T17:59:15.165Z,12.93
2023-03-13T18:02:16.703Z,12.78
2023-03-13T18:05:18.415Z,12.70
2023-03-13T18:08:20.697Z,12.75
2023-03-13T18:11:22.348Z,12.62
2023-03-13T18:14:23.906Z,12.61
2023-03-13T18:17:25.873Z,12.58
2023-03-13T18:20:29.566Z,12.59
2023-03-13T18:23:31.097Z,12.39
2023-03-13T18:26:34.276Z,12.34
2023-03-13T18:29:35.825Z,12.30
2023-03-13T18:32:37.379Z,12.30
2023-03-13T18:35:38.970Z,12.32
2023-03-13T18:38:40.453Z,12.36
2023-03-13T18:41:41.945Z,12.21
2023-03-13T18:44:43.438Z,12.12
2023-03-13T18:47:45.053Z,12.17
2023-03-13T18:50:46.714Z,12.19
2023-03-13T18:53:48.303Z,12.19
2023-03-13T18:56:49.915Z,12.07
2023-03-13T18:59:51.460Z,12.15
2023-03-13T19:02:53.007Z,12.00
2023-03-13T19:05:54.582Z,11.79
2023-03-13T19:09:42.119Z,11.76
2023-03-13T19:12:41.586Z,11.62
2023-03-13T19:15:43.088Z,11.45
2023-03-13T19:18:45.229Z,11.45
2023-03-13T19:21:47.050Z,11.47
2023-03-13T19:24:48.558Z,11.50
2023-03-13T19:27:50.060Z,11.25
2023-03-13T19:30:51.578Z,11.19
2023-03-13T19:33:53.536Z,9.53
2023-03-13T19:36:55.063Z,8.66
2023-03-13T19:39:56.574Z,8.43
2023-03-13T19:42:58.102Z,8.56
2023-03-13T19:45:59.593Z,8.49
2023-03-13T19:49:01.664Z,8.59
2023-03-13T19:52:03.278Z,8.57
2023-03-13T19:55:05.540Z,8.70
2023-03-13T19:58:07.158Z,8.85
2023-03-13T20:01:17.191Z,9.02
2023-03-13T20:04:19.341Z,8.77
2023-03-13T20:07:20.865Z,8.92
2023-03-13T20:10:22.470Z,8.94
2023-03-13T20:13:23.978Z,8.97
2023-03-13T20:16:27.811Z,8.96
2023-03-13T20:19:29.699Z,8.83
2023-03-13T20:22:31.238Z,8.61
2023-03-13T20:25:32.755Z,8.55
2023-03-13T20:28:34.655Z,8.43
2023-03-13T20:31:36.213Z,8.36
2023-03-13T20:34:37.756Z,8.36
2023-03-13T20:37:39.343Z,8.50
2023-03-13T20:40:40.848Z,8.45
2023-03-13T20:43:42.520Z,8.57
2023-03-13T20:46:44.067Z,8.76
2023-03-13T20:49:45.598Z,8.73
2023-03-13T20:52:47.131Z,8.75
2023-03-13T20:55:48.892Z,8.72
2023-03-13T20:58:50.403Z,8.54
2023-03-13T21:01:51.936Z,8.54
2023-03-13T21:04:53.513Z,8.57
2023-03-13T21:07:55.005Z,8.68
2023-03-13T21:10:57.502Z,8.68
2023-03-13T21:13:59.101Z,8.78
2023-03-13T21:17:00.619Z,8.67
2023-03-13T21:20:02.146Z,8.57
2023-03-13T21:23:03.624Z,8.53
2023-03-13T21:26:05.376Z,8.43
2023-03-13T21:29:09.197Z,8.42
2023-03-13T21:32:11.289Z,8.48
2023-03-13T21:35:12.841Z,8.36
2023-03-13T21:38:14.390Z,8.55
2023-03-13T21:41:17.552Z,8.62
2023-03-13T21:44:19.635Z,8.65
2023-03-13T21:47:24.543Z,8.71
2023-03-13T21:50:26.188Z,8.48
2023-03-13T21:53:27.678Z,8.48
2023-03-13T21:56:29.192Z,8.63
2023-03-13T21:59:31.869Z,8.76
2023-03-13T22:02:34.016Z,8.61
2023-03-13T22:05:40.694Z,8.68
2023-03-13T22:08:42.672Z,8.69
2023-03-13T22:11:44.142Z,8.67
2023-03-13T22:14:45.666Z,8.77
2023-03-13T22:17:47.205Z,8.67
2023-03-13T22:20:48.905Z,8.67
2023-03-13T22:23:50.518Z,8.70
2023-03-13T22:26:52.016Z,8.67
2023-03-13T22:29:53.577Z,8.74
2023-03-13T22:32:55.096Z,8.74
2023-03-13T22:35:56.722Z,8.75
2023-03-13T22:38:58.239Z,8.79
2023-03-13T22:42:00.083Z,8.58
2023-03-13T22:45:01.549Z,8.51
2023-03-13T22:48:06.207Z,8.58
2023-03-13T22:51:11.954Z,8.60
2023-03-13T22:54:13.424Z,8.59
2023-03-13T22:57:15.120Z,8.72
2023-03-13T23:00:16.938Z,8.86
2023-03-13T23:03:18.776Z,8.84
2023-03-13T23:06:24.410Z,8.87
2023-03-13T23:09:25.923Z,8.93
2023-03-13T23:12:30.648Z,8.86
2023-03-13T23:15:43.097Z,8.90
2023-03-13T23:18:53.764Z,8.94
2023-03-13T23:21:55.380Z,8.96
2023-03-13T23:24:57.114Z,8.97
2023-03-13T23:27:58.650Z,8.92
2023-03-13T23:31:00.848Z,8.94
2023-03-13T23:34:02.333Z,8.91
2023-03-13T23:37:03.852Z,8.87
2023-03-13T23:40:08.238Z,8.86
2023-03-13T23:43:09.772Z,8.84
2023-03-13T23:46:18.861Z,8.92
2023-03-13T23:49:20.352Z,8.95
2023-03-13T23:52:22.183Z,8.98
2023-03-13T23:55:23.689Z,9.06
2023-03-13T23:58:25.550Z,9.09
